首页
METAR-TAF:

METAR-TAF

机场 :

Houlton International Airport

霍尔顿, 缅因州, 美国

纬度: 46-07-23N, 经度: 067-47-31W, 海拔: 149米

当前天气观测

该预报发布于29分钟前的21:26 UTC
风速5节,风向西南
温度 6°C
湿度 87%
气压 1005 hPa
能見度: 8.0公里
多云层高于900英尺
阴天层高于1700英尺
小雨, 轻雾

METAR: KHUL 242126Z AUTO 23005KT 5SM -RA BR BKN009 OVC017 06/04 A2968 RMK AO2 P0004 T00610044

时间: 17:55 (21:55 UTC)

预报

该预报发布于4小时和35分钟前的17:20 UTC
预报有效从24日的 18点(UTC)到 25日的 18点(UTC)
风速8节,风向南转西南,有时为15节阵风
能見度: 10公里
多云层高于4000英尺
小雨
从 24日的 2000点(UTC)
风速9节,风向西南,有时为17节阵风
能見度: 4.8公里
阴天层高于1500英尺
小雨
从 25日的 0100点(UTC)
风速13节,风向西北,有时为23节阵风
能見度: 10公里
多云层高于4000英尺

TAF: KHUL 241720Z 2418/2518 20008G15KT P6SM -RA BKN040 FM242000 22009G17KT 3SM -RA OVC015 FM250100 32013G23KT P6SM BKN040

超过4000个机场的气象观测和天气预报(METAR&TAF报告)。

可查询的气象台以黄色和红色小点在地图上表示。

将鼠标移到小点上方,可查看气象台名称。

然后点击查看天气观测和预报。

如需切换地图:点击带黑十字的绿色按钮放大地图;点击带横线的绿色按钮缩小地图;或者点击绿色箭头查看邻近地区的地图。


METAR-TAF: